CLW3 weather

Laurel / Whittington
Ontario, Canada

Public forecast

Using degrees Celsius for public forecast. Weather courtesy of forecast.io.

METAR (pilot weather report)

Closest report is CFB Borden, 20.9 nm (38.8 km) NNE. Retrieved 2019/05/23 11:00 UTC (1 hour ago):

CYBN 231100Z AUTO 14006KT 090V150 9SM CLR 11/08 A2993 RMK SLP140

TAF (pilot weather forecast)

Closest forecast is CFB Borden, 20.9 nm (38.8 km) NNE. Retrieved 2019/05/23 12:33 UTC (0 seconds ago):

TAF TAF CYBN 231130Z 2312/2324 14005KT P6SM SCT080 OVC150 FM231400 19010G25KT P6SM SCT010 OVC025 TEMPO 2314/2319 3SM -SHRA BR OVC010 PROB30 2315/2319 VRB20G38KT 1SM TSRA BR BKN008 OVC020CB FM231900 27018G28KT P6SM BKN040 RMK FCST BASED ON AUTO OBS. NXT FCST BY 231800Z